Manorville, Pennsylvania
Current Conditions -  °F | °C
As of 3:35 PM on Thursday 23 Oct 2014 (Local Time) from KBTP Reporting Station
Few Clouds Few Clouds  
Wind Chill: 59°   Ceiling: Unl
Heat Index: 59°   Visibility: 10mi
Dew Point: 43°   Wind: 12mph
Humidity: 55%   Direction: 320°NW
Pressure: 30.07"   Gusts: 21mph
Location:  40.79°N, 79.52°W
Report Text: KBTP 231935Z AUTO 32010G18KT 10SM FEW041 15/06 A3007 RMK AO1
Loading
Personal Weather Stations






























Interactive Weather Map
Tropical Storm Tracking
New forecast layout! Learn more

10-Day Weather Forecast

Advertisements
Track Severe Weather on mobile